Time;durP1;ratioP1;P1;durP2;ratioP2;P2;SDS_P1;SDS_P2;PMS_P1;PMS_P2;Temp;Humidity;BMP_temperature;BMP_pressure;BME280_temperature;BME280_humidity;BME280_pressure;Samples;Min_cycle;Max_cycle;Signal;HPM_P1;HPM_P2
2023/11/03 00:01:06;;;;;;;3.00;0.65;;;;;;;11.70;38.16;97667.03;5008604;28;20851;-87
2023/11/03 00:03:36;;;;;;;3.63;0.80;;;;;;;11.72;37.95;97679.41;4982034;28;20143;-86
2023/11/03 00:06:05;;;;;;;2.20;0.70;;;;;;;11.70;38.09;97676.09;5004523;28;20042;-86
2023/11/03 00:08:33;;;;;;;1.80;0.70;;;;;;;11.70;37.94;97686.19;5011371;28;20043;-86
2023/11/03 00:11:04;;;;;;;1.83;0.90;;;;;;;11.72;38.13;97689.53;5004815;28;20058;-85
2023/11/03 00:13:36;;;;;;;2.88;0.93;;;;;;;11.71;37.59;97699.69;4987373;28;20465;-86
2023/11/03 00:16:05;;;;;;;2.05;0.73;;;;;;;11.69;37.76;97701.78;4982028;28;20062;-85
2023/11/03 00:18:32;;;;;;;1.63;0.77;;;;;;;11.67;38.03;97694.84;4981203;28;20051;-84
2023/11/03 00:21:01;;;;;;;1.65;0.70;;;;;;;11.64;38.05;97706.22;4981010;28;20062;-85
2023/11/03 00:23:29;;;;;;;3.08;1.08;;;;;;;11.63;38.02;97710.88;4984858;28;20517;-85
2023/11/03 00:25:57;;;;;;;1.88;0.82;;;;;;;11.64;37.86;97714.44;4981819;28;20117;-86
2023/11/03 00:28:27;;;;;;;2.13;1.00;;;;;;;11.66;38.25;97715.06;4980365;28;20061;-85
2023/11/03 00:30:55;;;;;;;2.42;1.00;;;;;;;11.61;38.27;97714.91;4983507;28;20038;-86
2023/11/03 00:33:24;;;;;;;1.48;0.80;;;;;;;11.61;37.98;97715.75;4981802;28;20054;-86
2023/11/03 00:35:52;;;;;;;2.08;0.80;;;;;;;11.63;38.22;97715.53;4984731;28;20422;-86
2023/11/03 00:38:20;;;;;;;2.10;0.70;;;;;;;11.63;37.96;97737.44;4985662;28;20042;-87
2023/11/03 00:40:49;;;;;;;2.08;0.70;;;;;;;11.61;37.98;97729.44;5002126;28;20205;-86
2023/11/03 00:43:17;;;;;;;3.45;0.90;;;;;;;11.63;37.93;97721.84;5032725;28;20046;-84
2023/11/03 00:45:47;;;;;;;2.53;0.70;;;;;;;11.61;38.29;97728.59;5027061;28;20066;-85
2023/11/03 00:48:15;;;;;;;2.70;0.98;;;;;;;11.61;38.24;97732.19;4986620;28;20165;-85
2023/11/03 00:50:43;;;;;;;2.13;0.70;;;;;;;11.58;38.34;97734.47;5001159;28;20043;-86
2023/11/03 00:53:11;;;;;;;3.28;0.80;;;;;;;11.58;38.29;97737.19;4974012;28;20117;-85
2023/11/03 00:55:39;;;;;;;2.05;0.70;;;;;;;11.60;38.05;97741.41;4992422;28;20054;-86
2023/11/03 00:58:08;;;;;;;2.05;0.90;;;;;;;11.60;38.37;97751.53;5014190;28;20074;-85
2023/11/03 01:00:40;;;;;;;1.77;0.70;;;;;;;11.58;38.29;97748.16;4994056;28;20109;-86
2023/11/03 01:03:10;;;;;;;1.63;0.70;;;;;;;11.57;38.00;97761.00;4986365;28;20104;-85
2023/11/03 01:05:39;;;;;;;1.90;0.90;;;;;;;11.57;38.48;97754.69;4982960;28;20050;-85
2023/11/03 01:08:07;;;;;;;2.22;0.90;;;;;;;11.56;38.03;97753.84;4967282;28;20050;-86
2023/11/03 01:10:36;;;;;;;3.00;1.05;;;;;;;11.54;37.88;97745.03;4986007;28;20149;-86
2023/11/03 01:13:09;;;;;;;2.75;1.00;;;;;;;11.54;38.47;97753.25;5008828;28;20138;-85
2023/11/03 01:15:44;;;;;;;2.45;0.80;;;;;;;11.55;37.91;97756.81;4984884;28;20050;-85
2023/11/03 01:18:15;;;;;;;2.65;0.90;;;;;;;11.52;37.98;97747.13;4984339;28;20137;-86
2023/11/03 01:20:43;;;;;;;1.92;1.00;;;;;;;11.52;38.16;97757.25;4983222;28;20046;-85
2023/11/03 01:23:13;;;;;;;3.05;0.80;;;;;;;11.49;38.53;97757.66;4982478;28;20042;-85
2023/11/03 01:25:43;;;;;;;2.00;0.90;;;;;;;11.47;38.14;97749.66;5008614;28;20244;-86
2023/11/03 01:28:12;;;;;;;1.35;0.80;;;;;;;11.47;38.17;97760.59;5010187;28;20054;-86
2023/11/03 01:30:41;;;;;;;2.35;0.90;;;;;;;11.48;38.21;97764.19;5006730;28;20078;-86
2023/11/03 01:33:09;;;;;;;1.92;0.70;;;;;;;11.43;38.47;97770.31;4983242;28;20568;-85
2023/11/03 01:35:39;;;;;;;1.83;0.65;;;;;;;11.45;38.08;97775.59;5003106;28;20106;-86
2023/11/03 01:38:07;;;;;;;2.67;0.82;;;;;;;11.44;38.51;97774.75;4965650;28;20053;-86
2023/11/03 01:40:36;;;;;;;1.23;0.60;;;;;;;11.42;38.10;97778.75;4966457;28;20054;-86
2023/11/03 01:43:04;;;;;;;1.85;0.47;;;;;;;11.43;38.07;97772.22;4982230;28;20403;-86
2023/11/03 01:45:33;;;;;;;3.55;1.00;;;;;;;11.43;38.00;97785.91;4980186;28;20643;-86
2023/11/03 01:48:01;;;;;;;3.30;0.93;;;;;;;11.41;38.47;97771.59;4985897;28;20332;-87
2023/11/03 01:50:30;;;;;;;1.63;0.70;;;;;;;11.42;38.21;97768.63;4985035;28;20046;-85
2023/11/03 01:53:02;;;;;;;2.28;0.88;;;;;;;11.43;38.55;97772.22;5000901;28;20050;-86
2023/11/03 01:55:31;;;;;;;1.47;0.47;;;;;;;11.40;38.71;97776.22;4987311;28;20062;-87
2023/11/03 01:57:59;;;;;;;2.42;0.70;;;;;;;11.41;38.80;97766.13;5005415;28;20177;-86
2023/11/03 02:00:30;;;;;;;2.40;0.70;;;;;;;11.40;38.25;97767.16;4986394;28;20065;-85
2023/11/03 02:03:05;;;;;;;2.70;0.95;;;;;;;11.39;38.52;97777.28;4991157;28;20058;-85
2023/11/03 02:05:36;;;;;;;3.47;0.98;;;;;;;11.42;38.61;97768.63;4958667;28;20079;-85
2023/11/03 02:08:06;;;;;;;1.42;0.80;;;;;;;11.42;38.26;97785.06;4987199;28;20533;-86
2023/11/03 02:10:35;;;;;;;1.73;1.13;;;;;;;11.40;38.47;97800.03;4990892;28;20046;-86
2023/11/03 02:13:04;;;;;;;1.83;0.80;;;;;;;11.41;38.47;97797.06;4990902;28;20076;-86
2023/11/03 02:15:33;;;;;;;2.25;1.27;;;;;;;11.39;38.68;97798.38;4992356;28;20054;-84
2023/11/03 02:18:03;;;;;;;2.75;0.90;;;;;;;11.35;38.60;97811.63;4996541;28;20042;-85
2023/11/03 02:20:31;;;;;;;1.83;0.60;;;;;;;11.36;38.85;97814.16;5029926;28;20074;-85
2023/11/03 02:23:01;;;;;;;1.25;0.50;;;;;;;11.38;38.24;97803.00;4992270;28;20057;-86
2023/11/03 02:25:29;;;;;;;1.70;0.52;;;;;;;11.36;38.40;97810.59;5014598;28;20113;-86
2023/11/03 02:27:58;;;;;;;1.50;0.60;;;;;;;11.37;38.41;97815.00;4990917;28;20085;-87
2023/11/03 02:30:26;;;;;;;1.90;0.70;;;;;;;11.35;38.69;97807.00;4995980;28;20062;-86
2023/11/03 02:32:55;;;;;;;1.60;0.68;;;;;;;11.35;38.62;97807.00;4988685;28;20061;-87
2023/11/03 02:35:24;;;;;;;1.67;0.43;;;;;;;11.33;38.33;97800.03;4977202;28;20047;-87
2023/11/03 02:37:52;;;;;;;3.13;0.70;;;;;;;11.34;38.38;97805.31;5007774;28;20068;-87
2023/11/03 02:40:21;;;;;;;2.00;0.70;;;;;;;11.35;38.56;97815.22;4989858;28;20050;-86
2023/11/03 02:42:50;;;;;;;1.65;0.60;;;;;;;11.32;38.98;97801.94;4978202;28;20125;-87
2023/11/03 02:45:18;;;;;;;1.98;0.63;;;;;;;11.34;38.77;97807.22;4975968;28;20054;-86
2023/11/03 02:47:47;;;;;;;1.55;0.60;;;;;;;11.34;38.71;97804.47;4982312;28;20056;-87
2023/11/03 02:50:15;;;;;;;1.60;0.52;;;;;;;11.34;38.62;97816.25;4983062;28;20169;-86
2023/11/03 02:52:45;;;;;;;1.45;0.57;;;;;;;11.33;38.64;97808.25;4979745;28;20050;-86
2023/11/03 02:55:14;;;;;;;1.42;0.75;;;;;;;11.34;38.80;97823.63;4981300;28;20419;-87
2023/11/03 02:57:44;;;;;;;1.45;0.73;;;;;;;11.33;38.75;97813.72;4981257;28;20069;-87
2023/11/03 03:00:14;;;;;;;2.17;0.70;;;;;;;11.35;38.42;97815.22;5003568;28;20157;-86
2023/11/03 03:02:43;;;;;;;2.20;0.68;;;;;;;11.33;38.71;97808.25;4998979;28;20521;-86
2023/11/03 03:05:11;;;;;;;2.60;0.82;;;;;;;11.33;38.79;97811.00;5003875;28;20050;-86
2023/11/03 03:07:45;;;;;;;1.75;0.60;;;;;;;11.31;38.71;97807.63;4996686;28;20082;-87
2023/11/03 03:10:13;;;;;;;1.58;0.60;;;;;;;11.29;38.63;97807.84;4977755;28;20047;-87
2023/11/03 03:12:42;;;;;;;2.33;0.73;;;;;;;11.33;38.71;97808.25;4974460;28;20051;-86
2023/11/03 03:15:12;;;;;;;2.55;0.77;;;;;;;11.34;38.86;97813.53;4961872;28;20050;-86
2023/11/03 03:17:40;;;;;;;1.77;0.80;;;;;;;11.32;38.84;97812.03;4962724;28;20058;-86
2023/11/03 03:20:09;;;;;;;3.70;0.88;;;;;;;11.31;38.81;97807.63;4961208;28;20054;-86
2023/11/03 03:22:37;;;;;;;2.38;1.00;;;;;;;11.27;38.64;97804.47;4978986;28;20062;-86
2023/11/03 03:25:07;;;;;;;1.98;1.05;;;;;;;11.30;38.96;97809.53;4963343;28;20051;-86
2023/11/03 03:27:36;;;;;;;3.53;1.20;;;;;;;11.30;38.93;97805.97;4970516;28;20122;-85
2023/11/03 03:30:06;;;;;;;4.35;1.20;;;;;;;11.27;38.77;97801.75;4981993;28;20061;-86
2023/11/03 03:32:36;;;;;;;2.72;1.20;;;;;;;11.28;38.80;97806.16;4981992;28;20039;-87
2023/11/03 03:35:05;;;;;;;3.00;1.02;;;;;;;11.28;38.63;97808.91;4984019;28;20038;-86
2023/11/03 03:37:33;;;;;;;2.10;1.00;;;;;;;11.25;38.92;97800.28;5005491;28;20043;-87
2023/11/03 03:40:02;;;;;;;1.70;0.93;;;;;;;11.27;39.15;97812.69;4980152;28;20494;-87
2023/11/03 03:42:30;;;;;;;3.13;1.13;;;;;;;11.26;39.21;97810.16;4984455;28;20039;-86
2023/11/03 03:44:59;;;;;;;3.50;0.95;;;;;;;11.24;38.91;97813.13;5001330;28;20057;-87
2023/11/03 03:47:27;;;;;;;2.65;1.05;;;;;;;11.28;39.27;97819.00;4981319;28;20055;-87
2023/11/03 03:49:57;;;;;;;2.45;0.90;;;;;;;11.28;38.82;97817.13;4980035;28;20093;-87
2023/11/03 03:52:25;;;;;;;1.92;0.80;;;;;;;11.26;39.17;97823.84;5000583;28;20044;-86
2023/11/03 03:54:53;;;;;;;2.35;1.00;;;;;;;11.26;38.88;97824.69;5002084;28;20061;-87
2023/11/03 03:57:21;;;;;;;2.58;0.80;;;;;;;11.24;39.18;97826.81;5014034;28;20584;-87
2023/11/03 03:59:49;;;;;;;2.97;1.00;;;;;;;11.24;38.98;97820.47;4983084;28;20054;-88
2023/11/03 04:02:18;;;;;;;2.65;1.20;;;;;;;11.25;39.34;97825.75;4974154;28;20203;-86
2023/11/03 04:04:46;;;;;;;2.30;0.93;;;;;;;11.25;38.91;97833.13;5009096;28;20900;-86
2023/11/03 04:07:15;;;;;;;3.35;0.88;;;;;;;11.26;39.03;97834.81;4982823;28;20141;-86
2023/11/03 04:09:44;;;;;;;4.28;1.00;;;;;;;11.25;39.16;97833.13;4980565;28;20657;-87
2023/11/03 04:12:12;;;;;;;3.63;1.05;;;;;;;11.24;38.90;97824.06;4985253;28;20047;-87
2023/11/03 04:14:41;;;;;;;3.50;0.98;;;;;;;11.25;39.05;97833.97;5013845;28;20053;-87
2023/11/03 04:17:09;;;;;;;3.63;1.00;;;;;;;11.22;39.29;97819.88;4991460;28;20046;-87
2023/11/03 04:19:37;;;;;;;2.20;1.00;;;;;;;11.23;39.30;97821.53;4985870;28;20054;-86
2023/11/03 04:22:05;;;;;;;3.08;1.02;;;;;;;11.23;38.96;97830.59;5000071;28;20506;-86
2023/11/03 04:24:35;;;;;;;3.85;1.00;;;;;;;11.21;38.99;97829.13;4994699;28;20098;-85
2023/11/03 04:27:03;;;;;;;4.47;1.02;;;;;;;11.22;39.35;97844.50;4965202;28;20050;-86
2023/11/03 04:29:32;;;;;;;3.28;0.90;;;;;;;11.20;39.05;97854.81;4997930;28;20050;-86
2023/11/03 04:32:00;;;;;;;3.78;1.17;;;;;;;11.19;39.00;97845.78;4980835;28;20081;-86
2023/11/03 04:34:28;;;;;;;3.65;1.30;;;;;;;11.18;38.94;97843.25;5011392;28;20437;-85
2023/11/03 04:36:56;;;;;;;3.72;1.50;;;;;;;11.16;38.94;97842.59;4985090;28;20053;-86
2023/11/03 04:39:26;;;;;;;2.55;1.10;;;;;;;11.20;38.88;97835.66;4998183;28;20053;-86
2023/11/03 04:41:55;;;;;;;3.22;1.20;;;;;;;11.17;38.88;97833.34;4979314;28;20050;-85
2023/11/03 04:44:24;;;;;;;5.32;1.50;;;;;;;11.13;38.94;97837.56;4988987;28;20058;-86
2023/11/03 04:46:52;;;;;;;2.78;1.10;;;;;;;11.12;39.25;97844.09;4986889;28;20054;-85
2023/11/03 04:49:21;;;;;;;4.82;1.50;;;;;;;11.13;38.98;97851.25;4990171;28;20038;-85
2023/11/03 04:51:49;;;;;;;2.53;1.08;;;;;;;11.11;39.55;97850.59;4988062;28;20125;-85
2023/11/03 04:54:17;;;;;;;4.68;1.27;;;;;;;11.11;39.55;97865.13;4984472;28;20051;-85
2023/11/03 04:56:46;;;;;;;3.33;1.02;;;;;;;11.09;39.06;97858.19;4972756;28;20063;-85
2023/11/03 04:59:15;;;;;;;3.28;1.13;;;;;;;11.11;39.42;97867.03;4978386;28;20074;-85
2023/11/03 05:01:43;;;;;;;4.00;1.17;;;;;;;11.06;39.26;97870.38;4993952;28;20077;-86
2023/11/03 05:04:12;;;;;;;3.72;1.27;;;;;;;11.06;39.41;97877.78;4997914;28;20038;-85
2023/11/03 05:06:40;;;;;;;3.00;1.27;;;;;;;11.04;39.44;97871.66;5018921;28;20087;-86
2023/11/03 05:09:09;;;;;;;5.45;1.73;;;;;;;11.02;39.34;97877.34;4991902;28;20141;-86
2023/11/03 05:11:37;;;;;;;3.10;1.05;;;;;;;11.05;39.40;97867.88;4989133;28;20042;-86
2023/11/03 05:14:06;;;;;;;5.55;1.40;;;;;;;11.03;39.46;97873.56;4993077;28;20446;-86
2023/11/03 05:16:35;;;;;;;3.47;1.15;;;;;;;11.05;39.64;97879.69;4991840;28;20082;-85
2023/11/03 05:19:03;;;;;;;4.60;1.60;;;;;;;10.99;40.01;97875.00;5007582;28;20137;-86
2023/11/03 05:21:32;;;;;;;5.38;1.65;;;;;;;11.02;40.12;97884.72;4993674;28;20044;-85
2023/11/03 05:24:00;;;;;;;5.18;1.40;;;;;;;11.02;40.03;97892.91;4975566;28;20109;-86
2023/11/03 05:26:27;;;;;;;4.28;1.52;;;;;;;11.00;40.03;97890.38;4996062;28;20066;-85
2023/11/03 05:28:57;;;;;;;6.20;1.95;;;;;;;11.03;40.08;97897.34;4991123;28;20063;-85
2023/11/03 05:31:25;;;;;;;6.13;1.70;;;;;;;11.01;40.29;97888.50;5008081;28;20061;-86
2023/11/03 05:33:56;;;;;;;5.68;1.33;;;;;;;11.04;40.19;97899.88;4997325;28;20046;-86
2023/11/03 05:36:24;;;;;;;4.78;1.77;;;;;;;11.02;39.75;97901.13;4992351;28;20070;-87
2023/11/03 05:38:53;;;;;;;3.88;1.63;;;;;;;11.02;40.08;97899.25;4971155;28;20050;-84
2023/11/03 05:41:21;;;;;;;3.50;1.20;;;;;;;11.02;39.62;97899.25;4969211;28;20245;-86
2023/11/03 05:43:49;;;;;;;2.70;1.10;;;;;;;11.01;39.68;97900.28;4970973;28;21053;-86
2023/11/03 05:46:18;;;;;;;4.88;1.35;;;;;;;11.01;40.14;97899.44;5001363;28;20050;-87
2023/11/03 05:48:46;;;;;;;3.22;1.48;;;;;;;10.98;39.95;97897.94;5012582;28;20038;-86
2023/11/03 05:51:16;;;;;;;4.05;1.35;;;;;;;10.97;40.11;97888.94;5000342;28;20058;-87
2023/11/03 05:53:44;;;;;;;4.38;1.60;;;;;;;10.97;39.89;97899.88;4995987;28;20264;-86
2023/11/03 05:56:13;;;;;;;4.13;1.25;;;;;;;10.96;39.53;97909.13;4968647;28;20467;-87
2023/11/03 05:58:41;;;;;;;3.47;1.13;;;;;;;10.97;39.55;97904.50;5008946;28;20419;-86
2023/11/03 06:01:10;;;;;;;4.88;1.27;;;;;;;10.92;39.71;97902.38;4978535;28;20054;-86
2023/11/03 06:03:38;;;;;;;5.25;1.30;;;;;;;10.94;39.73;97913.97;4977054;28;20046;-86
2023/11/03 06:06:07;;;;;;;3.70;1.30;;;;;;;10.93;39.88;97919.63;4997098;28;20141;-85
2023/11/03 06:08:37;;;;;;;3.33;1.20;;;;;;;10.94;39.82;97924.91;4998364;28;20047;-85
2023/11/03 06:11:07;;;;;;;4.35;1.70;;;;;;;10.89;39.89;97919.22;4979868;28;20054;-85
2023/11/03 06:13:37;;;;;;;4.88;1.73;;;;;;;10.88;40.02;97936.69;4980324;28;20058;-85
2023/11/03 06:16:06;;;;;;;4.25;1.50;;;;;;;10.88;39.81;97930.38;4996172;28;20070;-86
2023/11/03 06:18:35;;;;;;;3.65;1.30;;;;;;;10.86;39.84;97936.06;4981555;28;20525;-86
2023/11/03 06:21:04;;;;;;;4.68;1.30;;;;;;;10.85;40.05;97933.50;4980016;28;20057;-85
2023/11/03 06:23:32;;;;;;;3.55;1.25;;;;;;;10.85;39.99;97941.72;4979114;28;20050;-86
2023/11/03 06:26:03;;;;;;;5.07;1.50;;;;;;;10.82;40.37;97940.22;4963769;28;20050;-86
2023/11/03 06:28:32;;;;;;;2.80;1.25;;;;;;;10.83;40.05;97957.50;4980290;28;20056;-86
2023/11/03 06:31:00;;;;;;;4.18;1.30;;;;;;;10.83;40.15;97950.13;4980273;28;20050;-86
2023/11/03 06:33:28;;;;;;;4.68;1.27;;;;;;;10.83;40.30;97957.50;4983973;28;20074;-86
2023/11/03 06:35:59;;;;;;;4.32;1.10;;;;;;;10.82;40.33;97970.31;4974070;28;20061;-86
2023/11/03 06:38:29;;;;;;;4.90;1.40;;;;;;;10.82;40.49;97980.44;5006990;28;20090;-86
2023/11/03 06:40:58;;;;;;;3.17;1.48;;;;;;;10.80;40.61;97968.88;5002939;28;20469;-86
2023/11/03 06:43:28;;;;;;;3.58;0.98;;;;;;;10.80;40.64;97980.66;4987577;28;20129;-86
2023/11/03 06:45:56;;;;;;;1.98;0.95;;;;;;;10.79;40.50;97978.97;4984024;28;20418;-85
2023/11/03 06:48:25;;;;;;;3.47;1.15;;;;;;;10.80;40.50;97993.50;4998758;28;20066;-86
2023/11/03 06:50:53;;;;;;;4.20;1.13;;;;;;;10.81;40.71;97993.25;4977140;28;20158;-85
2023/11/03 06:53:24;;;;;;;3.78;1.20;;;;;;;10.82;40.58;97986.75;4996423;28;20054;-85
2023/11/03 06:55:53;;;;;;;2.65;0.98;;;;;;;10.81;40.79;97987.78;4978390;28;20054;-85
2023/11/03 06:58:21;;;;;;;5.45;1.10;;;;;;;10.82;40.73;97997.69;4985121;28;20049;-85
2023/11/03 07:00:51;;;;;;;4.18;1.13;;;;;;;10.86;40.83;97998.13;4987003;28;20878;-85
2023/11/03 07:03:19;;;;;;;3.05;1.10;;;;;;;10.83;40.60;97993.91;5013494;28;20043;-85
2023/11/03 07:05:48;;;;;;;3.13;1.30;;;;;;;10.84;40.86;97994.75;4997550;28;20132;-84
2023/11/03 07:08:16;;;;;;;3.45;1.13;;;;;;;10.85;40.98;97996.44;5001499;28;20556;-85
2023/11/03 07:10:44;;;;;;;5.32;1.40;;;;;;;10.86;40.87;97998.13;4999232;28;20398;-86
2023/11/03 07:13:12;;;;;;;3.63;1.10;;;;;;;10.87;40.74;97997.09;4982167;28;20053;-86
2023/11/03 07:15:43;;;;;;;3.05;1.10;;;;;;;10.86;40.50;97995.41;4983372;28;20378;-84
2023/11/03 07:18:13;;;;;;;4.03;0.95;;;;;;;10.87;40.56;97995.19;4983294;28;20530;-86
2023/11/03 07:20:41;;;;;;;2.97;1.17;;;;;;;10.86;40.83;98001.72;4999784;28;20054;-85
2023/11/03 07:23:09;;;;;;;3.60;1.08;;;;;;;10.87;41.03;98005.28;5000442;28;20438;-85
2023/11/03 07:25:38;;;;;;;4.70;1.05;;;;;;;10.88;40.90;98007.84;4980415;28;20042;-85
2023/11/03 07:28:06;;;;;;;4.60;1.35;;;;;;;10.89;40.76;98000.47;4982232;28;20047;-85
2023/11/03 07:30:34;;;;;;;3.08;1.10;;;;;;;10.89;41.08;98001.31;4982411;28;20510;-85
2023/11/03 07:33:05;;;;;;;3.13;1.00;;;;;;;10.91;40.66;98001.09;4984287;28;20086;-84
2023/11/03 07:35:34;;;;;;;2.58;0.80;;;;;;;10.92;40.98;98009.09;4984893;28;20065;-84
2023/11/03 07:38:04;;;;;;;4.95;0.95;;;;;;;10.92;40.85;98009.09;4982552;28;20552;-84
2023/11/03 07:40:33;;;;;;;2.88;1.02;;;;;;;10.93;40.94;97999.00;4987163;28;20049;-84
2023/11/03 07:43:01;;;;;;;2.72;0.93;;;;;;;10.96;40.53;98004.06;4981486;28;20274;-84
2023/11/03 07:45:32;;;;;;;4.55;1.40;;;;;;;10.96;40.88;98004.06;4984222;28;20060;-84
2023/11/03 07:48:01;;;;;;;2.13;0.90;;;;;;;10.96;41.09;97998.59;4985029;28;20084;-83
2023/11/03 07:50:33;;;;;;;5.00;1.30;;;;;;;10.96;40.96;97996.69;4982359;28;20065;-86
2023/11/03 07:53:03;;;;;;;2.80;0.83;;;;;;;10.98;40.79;97996.47;4986135;28;20061;-84
2023/11/03 07:55:31;;;;;;;3.50;1.20;;;;;;;10.99;40.58;97989.94;4983984;28;20054;-83
2023/11/03 07:57:59;;;;;;;2.35;1.10;;;;;;;11.01;40.82;97995.22;4987525;28;20042;-84
2023/11/03 08:00:27;;;;;;;3.17;1.20;;;;;;;11.02;40.80;98007.84;4985987;28;20058;-84
2023/11/03 08:02:56;;;;;;;5.28;1.40;;;;;;;11.02;41.04;98008.69;4985694;28;20070;-86
2023/11/03 08:05:24;;;;;;;4.22;1.08;;;;;;;11.02;40.95;98003.22;5002655;28;20410;-85
2023/11/03 08:07:53;;;;;;;3.60;0.98;;;;;;;11.06;40.51;98011.88;4987139;28;20085;-84
2023/11/03 08:10:21;;;;;;;2.95;1.17;;;;;;;11.08;40.58;98023.44;4986802;28;20054;-84
2023/11/03 08:12:50;;;;;;;3.97;1.15;;;;;;;11.06;40.93;98029.13;5013129;28;20058;-85
2023/11/03 08:15:18;;;;;;;4.75;1.08;;;;;;;11.08;40.79;98035.25;4984734;28;20093;-85
2023/11/03 08:17:47;;;;;;;4.72;1.13;;;;;;;11.09;40.56;98044.28;4987408;28;20431;-87
2023/11/03 08:20:18;;;;;;;4.68;1.50;;;;;;;11.08;40.67;98050.81;4995309;28;20050;-83
2023/11/03 08:22:48;;;;;;;3.60;1.13;;;;;;;11.10;41.06;98063.25;4994527;28;20042;-86
2023/11/03 08:25:17;;;;;;;3.00;1.30;;;;;;;11.11;40.62;98078.63;5015921;28;20065;-87
2023/11/03 08:27:47;;;;;;;2.50;1.40;;;;;;;11.12;40.83;98085.81;5017655;28;20050;-86
2023/11/03 08:30:15;;;;;;;3.20;0.90;;;;;;;11.12;40.65;98082.22;4991173;28;20050;-87
2023/11/03 08:32:44;;;;;;;5.30;1.10;;;;;;;11.11;40.70;98089.59;4994473;28;20097;-85
2023/11/03 08:35:14;;;;;;;2.38;0.95;;;;;;;11.11;40.91;98084.09;4998734;28;20067;-85
2023/11/03 08:37:42;;;;;;;3.47;0.90;;;;;;;11.13;40.78;98092.13;4998893;28;20066;-85
2023/11/03 08:40:11;;;;;;;3.25;1.23;;;;;;;11.14;40.53;98100.09;5003877;28;20073;-85
2023/11/03 08:42:40;;;;;;;2.67;0.95;;;;;;;11.13;40.30;98098.44;5021268;28;20054;-85
2023/11/03 08:45:10;;;;;;;3.55;1.17;;;;;;;11.14;40.82;98102.84;5004215;28;20053;-85
2023/11/03 08:47:41;;;;;;;2.08;0.75;;;;;;;11.14;40.74;98108.31;5020651;28;20062;-86
2023/11/03 08:50:10;;;;;;;3.22;0.90;;;;;;;11.12;40.86;98113.16;4997789;28;20054;-87
2023/11/03 08:52:40;;;;;;;3.30;0.90;;;;;;;11.11;40.85;98113.38;4982161;28;20039;-86
2023/11/03 08:55:10;;;;;;;2.53;0.75;;;;;;;11.09;40.93;98116.31;4991060;28;20069;-87
2023/11/03 08:57:40;;;;;;;3.40;0.90;;;;;;;11.12;40.43;98121.38;4976614;28;20129;-86
2023/11/03 09:00:12;;;;;;;3.90;0.88;;;;;;;11.14;40.57;98132.94;4978037;28;20042;-86
2023/11/03 09:02:41;;;;;;;3.78;1.00;;;;;;;11.10;40.77;98126.22;4978526;28;20071;-86
2023/11/03 09:05:11;;;;;;;4.03;1.60;;;;;;;11.12;40.51;98129.59;4980707;28;20586;-86
2023/11/03 09:07:40;;;;;;;4.35;1.35;;;;;;;11.12;40.60;98131.47;5010063;28;20046;-86
2023/11/03 09:10:11;;;;;;;3.67;1.00;;;;;;;11.12;40.81;98147.91;4983975;28;20061;-86
2023/11/03 09:12:41;;;;;;;3.20;1.05;;;;;;;11.10;40.56;98139.88;5010376;28;20129;-87
2023/11/03 09:15:11;;;;;;;3.72;1.00;;;;;;;11.12;41.07;98159.69;5009778;28;20104;-87
2023/11/03 09:17:45;;;;;;;3.33;1.08;;;;;;;11.11;41.01;98170.84;5009426;28;20053;-86
2023/11/03 09:20:17;;;;;;;5.30;1.20;;;;;;;11.12;40.54;98176.13;5010642;28;20082;-86
2023/11/03 09:22:48;;;;;;;4.00;0.93;;;;;;;11.09;40.70;98178.41;4983047;28;20038;-86
2023/11/03 09:25:17;;;;;;;2.85;1.02;;;;;;;11.10;40.90;98175.47;4983490;28;20047;-87
2023/11/03 09:27:45;;;;;;;4.10;1.00;;;;;;;11.11;40.99;98179.91;4982390;28;20057;-87
2023/11/03 09:30:15;;;;;;;4.60;1.67;;;;;;;11.13;41.13;98194.25;4993799;28;20586;-86
2023/11/03 09:32:47;;;;;;;3.30;1.08;;;;;;;11.12;40.71;98205.38;4999305;28;20770;-86
2023/11/03 09:35:16;;;;;;;4.82;1.10;;;;;;;11.13;40.94;98205.19;5007827;28;20046;-86
2023/11/03 09:37:44;;;;;;;5.38;1.08;;;;;;;11.12;40.97;98210.88;4986081;28;20046;-86
2023/11/03 09:40:16;;;;;;;4.50;0.98;;;;;;;11.14;41.22;98217.00;4986369;28;20138;-86
2023/11/03 09:42:47;;;;;;;4.60;1.10;;;;;;;11.12;41.23;98214.44;4980450;28;20042;-87
2023/11/03 09:45:23;;;;;;;3.78;1.00;;;;;;;11.15;41.10;98226.88;4981076;28;20086;-86
2023/11/03 09:47:54;;;;;;;3.92;1.33;;;;;;;11.14;41.16;98220.53;4964426;28;20125;-86
2023/11/03 09:50:24;;;;;;;4.32;1.27;;;;;;;11.13;41.01;98227.09;5001875;28;20057;-86
2023/11/03 09:52:58;;;;;;;4.43;1.20;;;;;;;11.17;40.86;98230.25;4969204;28;20051;-87
2023/11/03 09:55:31;;;;;;;4.22;1.20;;;;;;;11.17;41.07;98224.78;4982713;28;20038;-88
2023/11/03 09:58:02;;;;;;;6.28;1.23;;;;;;;11.15;41.00;98214.03;5010617;28;20065;-86
2023/11/03 10:00:32;;;;;;;5.13;1.20;;;;;;;11.18;40.82;98223.72;5002965;28;20054;-87
2023/11/03 10:03:01;;;;;;;4.93;1.10;;;;;;;11.17;40.94;98213.81;4986504;28;20654;-86
2023/11/03 10:05:31;;;;;;;3.53;1.50;;;;;;;11.19;40.94;98214.47;4987724;28;20042;-86
2023/11/03 10:08:17;;;;;;;3.72;1.17;;;;;;;11.22;40.98;98223.16;4989439;28;20070;-86
2023/11/03 10:10:46;;;;;;;4.55;1.45;;;;;;;11.24;40.90;98223.75;5006261;28;20054;-86
2023/11/03 10:13:15;;;;;;;4.75;1.30;;;;;;;11.25;40.51;98228.19;4987554;28;20050;-86
2023/11/03 10:15:45;;;;;;;4.60;1.20;;;;;;;11.31;40.94;98229.25;4983579;28;21002;-87
2023/11/03 10:18:13;;;;;;;3.30;1.30;;;;;;;11.32;40.71;98236.44;5021289;28;20050;-85
2023/11/03 10:20:44;;;;;;;4.65;1.20;;;;;;;11.35;40.74;98234.16;5002510;28;20097;-86
2023/11/03 10:23:13;;;;;;;4.28;1.20;;;;;;;11.39;40.84;98229.09;5027719;28;20066;-86
2023/11/03 10:25:45;;;;;;;4.03;1.15;;;;;;;11.45;40.92;98235.66;4984884;28;20051;-85
2023/11/03 10:28:14;;;;;;;4.20;1.30;;;;;;;11.47;40.91;98228.91;4981119;28;20064;-85
2023/11/03 10:30:43;;;;;;;3.58;1.23;;;;;;;11.53;40.80;98224.53;4975110;28;20053;-86
2023/11/03 10:33:14;;;;;;;4.72;1.20;;;;;;;11.61;40.65;98233.47;4976702;28;20058;-85
2023/11/03 10:35:42;;;;;;;4.72;1.17;;;;;;;11.65;41.32;98226.50;4999172;28;20054;-85
2023/11/03 10:38:11;;;;;;;4.40;1.25;;;;;;;11.70;40.60;98221.28;5004517;28;20050;-86
2023/11/03 10:40:42;;;;;;;3.83;1.10;;;;;;;11.75;40.79;98220.63;5010924;28;20046;-84
2023/11/03 10:43:14;;;;;;;4.72;1.42;;;;;;;11.84;40.69;98224.03;4983757;28;20054;-85
2023/11/03 10:45:51;;;;;;;3.47;1.40;;;;;;;11.89;40.82;98227.84;4983982;28;20058;-85
2023/11/03 10:48:26;;;;;;;3.67;1.40;;;;;;;11.95;40.48;98228.94;4984693;28;20485;-85
2023/11/03 10:51:00;;;;;;;3.25;1.20;;;;;;;12.03;40.29;98215.88;4981568;28;20057;-84
2023/11/03 10:53:37;;;;;;;3.28;0.82;;;;;;;12.08;40.40;98232.53;4980060;28;20974;-84
2023/11/03 10:56:06;;;;;;;4.32;1.35;;;;;;;12.12;40.53;98202.81;4983870;28;20125;-85
2023/11/03 10:58:56;;;;;;;3.97;1.20;;;;;;;12.18;40.93;98207.47;5010945;28;20262;-85
2023/11/03 11:01:33;;;;;;;4.63;2.00;;;;;;;12.26;39.88;98212.75;5002956;28;20634;-85
2023/11/03 11:04:07;;;;;;;2.92;1.08;;;;;;;12.31;40.13;98212.94;5002352;28;20052;-85
2023/11/03 11:06:41;;;;;;;4.32;1.17;;;;;;;12.38;39.87;98210.19;4983065;28;20065;-85
2023/11/03 11:09:14;;;;;;;5.20;1.20;;;;;;;12.45;40.02;98219.31;4967967;28;20055;-84
2023/11/03 11:11:46;;;;;;;3.25;1.10;;;;;;;12.48;39.85;98219.72;4985818;28;20039;-85
2023/11/03 11:14:23;;;;;;;3.75;1.00;;;;;;;12.56;39.38;98218.66;5010250;28;20411;-85
2023/11/03 11:16:55;;;;;;;4.68;1.73;;;;;;;12.61;39.89;98229.84;5011670;28;20152;-85
2023/11/03 11:19:34;;;;;;;4.72;0.98;;;;;;;12.65;39.51;98211.94;4984433;28;20076;-85
2023/11/03 11:22:04;;;;;;;4.95;1.27;;;;;;;12.69;40.10;98235.16;5002093;28;20038;-85
2023/11/03 11:24:32;;;;;;;3.17;1.10;;;;;;;12.74;39.62;98240.00;4982795;28;20142;-85
2023/11/03 11:27:13;;;;;;;4.82;1.20;;;;;;;12.80;39.17;98245.47;4984321;28;20522;-84
2023/11/03 11:29:42;;;;;;;5.10;1.20;;;;;;;12.80;39.48;98253.72;5013385;28;20050;-86
2023/11/03 11:32:12;;;;;;;5.03;1.33;;;;;;;12.87;39.84;98251.00;4991400;28;20054;-85
2023/11/03 11:34:44;;;;;;;5.22;1.38;;;;;;;12.87;39.41;98235.34;5018052;28;20058;-87
2023/11/03 11:37:27;;;;;;;4.00;1.20;;;;;;;12.92;38.99;98244.84;4992253;28;20050;-85
2023/11/03 11:39:57;;;;;;;3.83;1.50;;;;;;;12.90;39.48;98230.47;4991710;28;20035;-85
2023/11/03 11:42:27;;;;;;;3.13;1.10;;;;;;;12.92;39.56;98242.09;4980361;28;20081;-85
2023/11/03 11:44:57;;;;;;;3.88;1.25;;;;;;;12.95;39.43;98252.66;4988107;28;20453;-85